Vancouver, Washington
Current Conditions -  °F | °C
As of 1:53 AM on Saturday 22 Nov 2014 (Local Time) from KVUO Reporting Station
Light Rain Light Rain  
Wind Chill:   Ceiling: 5000
Heat Index:   Visibility: 8mi
Dew Point:   Wind: 6mph
Humidity: 93%   Direction: 350°N
Pressure: 29.7"   Gusts: NA
Location:  45.63°N, 122.67°W
Report Text: KVUO 220953Z AUTO 35005KT 8SM -RA FEW012 BKN050 OVC090 08/07 A2970 RMK AO2 RAE19B45 SLP056 P0001 T00830072
Loading
Personal Weather Stations






























Interactive Weather Map New forecast layout! Learn more

10-Day Weather Forecast

Advertisements
Track Severe Weather on mobile